Time;durP1;ratioP1;P1;durP2;ratioP2;P2;SDS_P1;SDS_P2;PMS_P1;PMS_P2;Temp;Humidity;BMP_temperature;BMP_pressure;BME280_temperature;BME280_humidity;BME280_pressure;Samples;Min_cycle;Max_cycle;Signal;HPM_P1;HPM_P2
2024/02/18 00:02:15;;;;;;;;;;;;;;;;;;6297598;28;20355;-78
2024/02/18 00:05:16;;;;;;;;;;;;;;;;;;6310858;28;19912;-78
2024/02/18 00:08:16;;;;;;;;;;;;;;;;;;6312129;28;19951;-77
2024/02/18 00:11:16;;;;;;;;;;;;;;;;;;6320898;28;19955;-77
2024/02/18 00:14:16;;;;;;;;;;;;;;;;;;6318675;28;20289;-78
2024/02/18 00:17:16;;;;;;;;;;;;;;;;;;6316252;28;19960;-78
2024/02/18 00:20:17;;;;;;;;;;;;;;;;;;6309336;28;20002;-78
2024/02/18 00:23:17;;;;;;;;;;;;;;;;;;6319517;28;20198;-78
2024/02/18 00:26:17;;;;;;;;;;;;;;;;;;6306431;28;19912;-77
2024/02/18 00:29:17;;;;;;;;;;;;;;;;;;6309528;28;19908;-77
2024/02/18 00:32:17;;;;;;;;;;;;;;;;;;6330726;28;19919;-78
2024/02/18 00:35:18;;;;;;;;;;;;;;;;;;6314781;28;19914;-78
2024/02/18 00:38:18;;;;;;;;;;;;;;;;;;6297112;28;19915;-78
2024/02/18 00:41:18;;;;;;;;;;;;;;;;;;6313940;28;19913;-77
2024/02/18 00:44:19;;;;;;;;;;;;;;;;;;6312885;28;20386;-77
2024/02/18 00:47:19;;;;;;;;;;;;;;;;;;6312111;28;19916;-78
2024/02/18 00:50:19;;;;;;;;;;;;;;;;;;6322281;28;20283;-78
2024/02/18 00:53:19;;;;;;;;;;;;;;;;;;6304729;28;19908;-78
2024/02/18 00:56:20;;;;;;;;;;;;;;;;;;6322938;28;19916;-78
2024/02/18 00:59:20;;;;;;;;;;;;;;;;;;6308304;28;19915;-78
2024/02/18 01:02:20;;;;;;;;;;;;;;;;;;6315710;28;19912;-79
2024/02/18 01:05:20;;;;;;;;;;;;;;;;;;6290093;28;19927;-78
2024/02/18 01:08:20;;;;;;;;;;;;;;;;;;6300134;28;19908;-78
2024/02/18 01:11:20;;;;;;;;;;;;;;;;;;6303121;28;19912;-77
2024/02/18 01:14:20;;;;;;;;;;;;;;;;;;6323469;28;20284;-78
2024/02/18 01:17:21;;;;;;;;;;;;;;;;;;6317524;28;20377;-78
2024/02/18 01:20:21;;;;;;;;;;;;;;;;;;6322253;28;19904;-78
2024/02/18 01:23:21;;;;;;;;;;;;;;;;;;6320835;28;19915;-78
2024/02/18 01:26:21;;;;;;;;;;;;;;;;;;6310233;28;19916;-77
2024/02/18 01:29:22;;;;;;;;;;;;;;;;;;6297656;28;19909;-77
2024/02/18 01:32:22;;;;;;;;;;;;;;;;;;6298728;28;20345;-77
2024/02/18 01:35:22;;;;;;;;;;;;;;;;;;6314436;28;19915;-77
2024/02/18 01:38:22;;;;;;;;;;;;;;;;;;6346483;28;20390;-78
2024/02/18 01:41:22;;;;;;;;;;;;;;;;;;6322257;28;19993;-79
2024/02/18 01:44:23;;;;;;;;;;;;;;;;;;6300571;28;20016;-79
2024/02/18 01:47:23;;;;;;;;;;;;;;;;;;6298423;28;19912;-78
2024/02/18 01:50:23;;;;;;;;;;;;;;;;;;6297953;28;19908;-78
2024/02/18 01:53:23;;;;;;;;;;;;;;;;;;6300700;28;20025;-78
2024/02/18 01:56:23;;;;;;;;;;;;;;;;;;6299066;28;19912;-79
2024/02/18 01:59:23;;;;;;;;;;;;;;;;;;6320133;28;20010;-78
2024/02/18 02:02:23;;;;;;;;;;;;;;;;;;6320790;28;20359;-78
2024/02/18 02:05:24;;;;;;;;;;;;;;;;;;6321786;28;19912;-78
2024/02/18 02:08:24;;;;;;;;;;;;;;;;;;6320091;28;19915;-78
2024/02/18 02:11:24;;;;;;;;;;;;;;;;;;6302430;28;19908;-78
2024/02/18 02:14:24;;;;;;;;;;;;;;;;;;6335097;27;19919;-78
2024/02/18 02:17:24;;;;;;;;;;;;;;;;;;6322613;28;19908;-78
2024/02/18 02:20:26;;;;;;;;;;;;;;;;;;6325894;28;19949;-78
2024/02/18 02:23:26;;;;;;;;;;;;;;;;;;6302753;28;19916;-78
2024/02/18 02:26:26;;;;;;;;;;;;;;;;;;6339478;28;19964;-77
2024/02/18 02:29:26;;;;;;;;;;;;;;;;;;6324013;28;20014;-76
2024/02/18 02:32:26;;;;;;;;;;;;;;;;;;6317656;28;19951;-77
2024/02/18 02:35:27;;;;;;;;;;;;;;;;;;6325569;28;19912;-77
2024/02/18 02:38:27;;;;;;;;;;;;;;;;;;6319133;28;20288;-78
2024/02/18 02:41:27;;;;;;;;;;;;;;;;;;6313974;28;19908;-78
2024/02/18 02:44:27;;;;;;;;;;;;;;;;;;6325183;28;20018;-78
2024/02/18 02:47:27;;;;;;;;;;;;;;;;;;6323000;28;20037;-77
2024/02/18 02:50:27;;;;;;;;;;;;;;;;;;6305315;28;19951;-77
2024/02/18 02:53:27;;;;;;;;;;;;;;;;;;6307664;28;19908;-77
2024/02/18 02:56:28;;;;;;;;;;;;;;;;;;6325716;28;19940;-77
2024/02/18 02:59:28;;;;;;;;;;;;;;;;;;6323467;28;19977;-76
2024/02/18 03:02:28;;;;;;;;;;;;;;;;;;6323622;28;19998;-77
2024/02/18 03:05:28;;;;;;;;;;;;;;;;;;6299762;28;19912;-78
2024/02/18 03:08:28;;;;;;;;;;;;;;;;;;6300276;28;19908;-78
2024/02/18 03:11:28;;;;;;;;;;;;;;;;;;6300528;28;19973;-78
2024/02/18 03:14:28;;;;;;;;;;;;;;;;;;6330983;28;20016;-77
2024/02/18 03:17:29;;;;;;;;;;;;;;;;;;6316628;28;20396;-77
2024/02/18 03:20:29;;;;;;;;;;;;;;;;;;6299684;28;19918;-78
2024/02/18 03:23:29;;;;;;;;;;;;;;;;;;6314520;28;20266;-78
2024/02/18 03:26:29;;;;;;;;;;;;;;;;;;6319297;28;19912;-76
2024/02/18 03:29:31;;;;;;;;;;;;;;;;;;6318472;28;19904;-77
2024/02/18 03:32:35;;;;;;;;;;;;;;;;;;6316021;28;19939;-76
2024/02/18 03:35:35;;;;;;;;;;;;;;;;;;6300405;28;19912;-77
2024/02/18 03:38:35;;;;;;;;;;;;;;;;;;6306376;28;19908;-75
2024/02/18 03:41:35;;;;;;;;;;;;;;;;;;6325094;28;19904;-77
2024/02/18 03:44:35;;;;;;;;;;;;;;;;;;6313153;28;19912;-76
2024/02/18 03:47:36;;;;;;;;;;;;;;;;;;6318923;28;20269;-76
2024/02/18 03:50:36;;;;;;;;;;;;;;;;;;6299675;28;19940;-78
2024/02/18 03:53:36;;;;;;;;;;;;;;;;;;6300126;28;20284;-77
2024/02/18 03:56:36;;;;;;;;;;;;;;;;;;6316679;28;19912;-77
2024/02/18 03:59:36;;;;;;;;;;;;;;;;;;6296065;28;19905;-76
2024/02/18 04:02:38;;;;;;;;;;;;;;;;;;6291833;28;20258;-77
2024/02/18 04:05:38;;;;;;;;;;;;;;;;;;6297294;28;20324;-76
2024/02/18 04:08:38;;;;;;;;;;;;;;;;;;6301538;28;20368;-78
2024/02/18 04:11:39;;;;;;;;;;;;;;;;;;6317710;28;19908;-77
2024/02/18 04:14:39;;;;;;;;;;;;;;;;;;6311392;28;20292;-78
2024/02/18 04:17:39;;;;;;;;;;;;;;;;;;6296396;28;19983;-78
2024/02/18 04:20:39;;;;;;;;;;;;;;;;;;6308959;28;20137;-77
2024/02/18 04:23:39;;;;;;;;;;;;;;;;;;6306629;28;19954;-78
2024/02/18 04:26:39;;;;;;;;;;;;;;;;;;6318712;28;19958;-78
2024/02/18 04:29:40;;;;;;;;;;;;;;;;;;6308808;28;19908;-77
2024/02/18 04:32:40;;;;;;;;;;;;;;;;;;6320963;28;20316;-77
2024/02/18 04:35:40;;;;;;;;;;;;;;;;;;6322826;28;19908;-78
2024/02/18 04:38:40;;;;;;;;;;;;;;;;;;6314452;28;19908;-77
2024/02/18 04:41:40;;;;;;;;;;;;;;;;;;6300040;28;19908;-77
2024/02/18 04:44:40;;;;;;;;;;;;;;;;;;6322267;28;20304;-77
2024/02/18 04:47:41;;;;;;;;;;;;;;;;;;6301507;28;19920;-77
2024/02/18 04:50:41;;;;;;;;;;;;;;;;;;6297329;28;19995;-77
2024/02/18 04:53:41;;;;;;;;;;;;;;;;;;6313966;28;19914;-76
2024/02/18 04:56:41;;;;;;;;;;;;;;;;;;6299277;28;19930;-76
2024/02/18 04:59:41;;;;;;;;;;;;;;;;;;6296098;28;19959;-77
2024/02/18 05:02:41;;;;;;;;;;;;;;;;;;6297726;28;20006;-77
2024/02/18 05:05:41;;;;;;;;;;;;;;;;;;6307260;28;19916;-77
2024/02/18 05:08:41;;;;;;;;;;;;;;;;;;6318864;28;19908;-76
2024/02/18 05:11:42;;;;;;;;;;;;;;;;;;6312724;28;19908;-77
2024/02/18 05:14:42;;;;;;;;;;;;;;;;;;6341032;28;20288;-76
2024/02/18 05:17:42;;;;;;;;;;;;;;;;;;6347384;28;19912;-77
2024/02/18 05:20:42;;;;;;;;;;;;;;;;;;6329476;28;20302;-78
2024/02/18 05:23:42;;;;;;;;;;;;;;;;;;6303688;28;19935;-78
2024/02/18 05:26:42;;;;;;;;;;;;;;;;;;6297956;28;19969;-78
2024/02/18 05:29:43;;;;;;;;;;;;;;;;;;6316124;28;19934;-78
2024/02/18 05:32:43;;;;;;;;;;;;;;;;;;6321848;28;20254;-78
2024/02/18 05:35:43;;;;;;;;;;;;;;;;;;6318177;28;19916;-78
2024/02/18 05:38:44;;;;;;;;;;;;;;;;;;6318960;28;20276;-78
2024/02/18 05:41:44;;;;;;;;;;;;;;;;;;6322528;28;20276;-78
2024/02/18 05:44:44;;;;;;;;;;;;;;;;;;6323583;28;19916;-78
2024/02/18 05:47:44;;;;;;;;;;;;;;;;;;6324648;28;19912;-78
2024/02/18 05:50:44;;;;;;;;;;;;;;;;;;6300497;28;19913;-79
2024/02/18 05:53:44;;;;;;;;;;;;;;;;;;6305695;28;19919;-78
2024/02/18 05:56:44;;;;;;;;;;;;;;;;;;6321849;28;19915;-78
2024/02/18 05:59:45;;;;;;;;;;;;;;;;;;6328284;28;19912;-78
2024/02/18 06:02:45;;;;;;;;;;;;;;;;;;6326260;28;19912;-78
2024/02/18 06:05:45;;;;;;;;;;;;;;;;;;6302244;28;19917;-78
2024/02/18 06:08:46;;;;;;;;;;;;;;;;;;6321120;28;19912;-79
2024/02/18 06:11:46;;;;;;;;;;;;;;;;;;6319040;28;19908;-78
2024/02/18 06:14:46;;;;;;;;;;;;;;;;;;6347504;28;19985;-78
2024/02/18 06:17:46;;;;;;;;;;;;;;;;;;6322861;28;20341;-78
2024/02/18 06:20:46;;;;;;;;;;;;;;;;;;6322356;28;20276;-79
2024/02/18 06:23:47;;;;;;;;;;;;;;;;;;6324629;28;20284;-79
2024/02/18 06:26:47;;;;;;;;;;;;;;;;;;6314513;28;19912;-79
2024/02/18 06:29:47;;;;;;;;;;;;;;;;;;6320696;28;19915;-78
2024/02/18 06:32:47;;;;;;;;;;;;;;;;;;6323876;28;19908;-77
2024/02/18 06:35:48;;;;;;;;;;;;;;;;;;6318366;28;19943;-79
2024/02/18 06:38:49;;;;;;;;;;;;;;;;;;6316655;28;19908;-79
2024/02/18 06:41:50;;;;;;;;;;;;;;;;;;6320178;28;19912;-79
2024/02/18 06:44:51;;;;;;;;;;;;;;;;;;6315507;28;19915;-78
2024/02/18 06:47:51;;;;;;;;;;;;;;;;;;6324005;28;19965;-79
2024/02/18 06:50:51;;;;;;;;;;;;;;;;;;6324181;28;19995;-79
2024/02/18 06:53:52;;;;;;;;;;;;;;;;;;6322140;28;20413;-79
2024/02/18 06:56:52;;;;;;;;;;;;;;;;;;6323537;28;19962;-78
2024/02/18 06:59:55;;;;;;;;;;;;;;;;;;6315809;28;20279;-79
2024/02/18 07:02:55;;;;;;;;;;;;;;;;;;6318942;28;19915;-78
2024/02/18 07:05:56;;;;;;;;;;;;;;;;;;6316682;28;20300;-79
2024/02/18 07:08:56;;;;;;;;;;;;;;;;;;6324939;28;20322;-79
2024/02/18 07:11:56;;;;;;;;;;;;;;;;;;6313324;28;20360;-78
2024/02/18 07:14:56;;;;;;;;;;;;;;;;;;6310231;28;19922;-83
2024/02/18 07:17:56;;;;;;;;;;;;;;;;;;6311371;28;19912;-83
2024/02/18 07:20:56;;;;;;;;;;;;;;;;;;6316298;28;19953;-83
2024/02/18 07:23:57;;;;;;;;;;;;;;;;;;6301014;28;19923;-83
2024/02/18 07:26:57;;;;;;;;;;;;;;;;;;6323981;28;19938;-83
2024/02/18 07:29:57;;;;;;;;;;;;;;;;;;6318373;28;19908;-83
2024/02/18 07:32:57;;;;;;;;;;;;;;;;;;6303153;28;19920;-82
2024/02/18 07:35:58;;;;;;;;;;;;;;;;;;6310916;28;19919;-82
2024/02/18 07:38:58;;;;;;;;;;;;;;;;;;6317113;28;19908;-82
2024/02/18 07:41:58;;;;;;;;;;;;;;;;;;6302515;28;19912;-77
2024/02/18 07:44:58;;;;;;;;;;;;;;;;;;6306357;28;19908;-77
2024/02/18 07:47:58;;;;;;;;;;;;;;;;;;6298873;28;19916;-77
2024/02/18 07:50:58;;;;;;;;;;;;;;;;;;6309293;28;19908;-77
2024/02/18 07:53:58;;;;;;;;;;;;;;;;;;6308003;28;20297;-77
2024/02/18 07:56:59;;;;;;;;;;;;;;;;;;6321830;28;20383;-77
2024/02/18 07:59:59;;;;;;;;;;;;;;;;;;6313978;28;20376;-77
2024/02/18 08:02:59;;;;;;;;;;;;;;;;;;6314750;28;19907;-78
2024/02/18 08:05:59;;;;;;;;;;;;;;;;;;6322344;28;20331;-77
2024/02/18 08:08:59;;;;;;;;;;;;;;;;;;6322011;28;19915;-78
2024/02/18 08:11:59;;;;;;;;;;;;;;;;;;6321636;28;20006;-78
2024/02/18 08:14:59;;;;;;;;;;;;;;;;;;6321206;28;20277;-77
2024/02/18 08:18:00;;;;;;;;;;;;;;;;;;6298173;28;20365;-77
2024/02/18 08:21:00;;;;;;;;;;;;;;;;;;6311868;28;19908;-77
2024/02/18 08:24:00;;;;;;;;;;;;;;;;;;6315119;28;19908;-76
2024/02/18 08:27:00;;;;;;;;;;;;;;;;;;6304082;28;19912;-77
2024/02/18 08:30:00;;;;;;;;;;;;;;;;;;6297244;28;20284;-77
2024/02/18 08:33:00;;;;;;;;;;;;;;;;;;6306646;28;20044;-77
2024/02/18 08:36:00;;;;;;;;;;;;;;;;;;6317510;28;19969;-77
2024/02/18 08:39:00;;;;;;;;;;;;;;;;;;6324073;28;20326;-77
2024/02/18 08:42:01;;;;;;;;;;;;;;;;;;6321160;28;20864;-79
2024/02/18 08:45:01;;;;;;;;;;;;;;;;;;6295167;28;21901;-78
2024/02/18 08:48:01;;;;;;;;;;;;;;;;;;6301788;28;19987;-78
2024/02/18 08:51:01;;;;;;;;;;;;;;;;;;6301369;28;20077;-78
2024/02/18 08:54:01;;;;;;;;;;;;;;;;;;6314870;28;20045;-78
2024/02/18 08:57:01;;;;;;;;;;;;;;;;;;6318503;28;19912;-78
2024/02/18 09:00:02;;;;;;;;;;;;;;;;;;6332137;28;19911;-77
2024/02/18 09:03:03;;;;;;;;;;;;;;;;;;6302985;28;20289;-79
2024/02/18 09:06:03;;;;;;;;;;;;;;;;;;6309624;28;19923;-78
2024/02/18 09:09:03;;;;;;;;;;;;;;;;;;6319333;28;19912;-78
2024/02/18 09:12:03;;;;;;;;;;;;;;;;;;6327977;28;20071;-78
2024/02/18 09:15:03;;;;;;;;;;;;;;;;;;6307462;28;19912;-78
2024/02/18 09:18:04;;;;;;;;;;;;;;;;;;6299852;28;19904;-78
2024/02/18 09:21:04;;;;;;;;;;;;;;;;;;6302047;28;19904;-78
2024/02/18 09:24:04;;;;;;;;;;;;;;;;;;6308695;28;19961;-78
2024/02/18 09:27:06;;;;;;;;;;;;;;;;;;6320901;28;19927;-78
2024/02/18 09:30:06;;;;;;;;;;;;;;;;;;6308850;28;20285;-78
2024/02/18 09:33:07;;;;;;;;;;;;;;;;;;6325661;28;19957;-78
2024/02/18 09:36:07;;;;;;;;;;;;;;;;;;6317709;28;19943;-78
2024/02/18 09:39:07;;;;;;;;;;;;;;;;;;5967963;28;10000029;-78
2024/02/18 09:42:08;;;;;;;;;;;;;;;;;;6303485;28;19987;-78
2024/02/18 09:45:11;;;;;;;;;;;;;;;;;;6310003;28;19981;-78
2024/02/18 09:48:11;;;;;;;;;;;;;;;;;;6337964;28;19912;-78
2024/02/18 09:51:12;;;;;;;;;;;;;;;;;;6314628;28;19905;-78
2024/02/18 09:54:12;;;;;;;;;;;;;;;;;;6324329;28;20333;-77
2024/02/18 09:57:12;;;;;;;;;;;;;;;;;;6319821;28;19904;-78
2024/02/18 10:00:12;;;;;;;;;;;;;;;;;;6319269;28;19908;-78
2024/02/18 10:03:12;;;;;;;;;;;;;;;;;;6319308;28;20279;-77
2024/02/18 10:06:13;;;;;;;;;;;;;;;;;;6325889;28;19912;-76
2024/02/18 10:09:14;;;;;;;;;;;;;;;;;;6323825;28;19908;-76
2024/02/18 10:12:14;;;;;;;;;;;;;;;;;;6329643;28;20387;-77
2024/02/18 10:15:16;;;;;;;;;;;;;;;;;;6345060;28;19908;-76
2024/02/18 10:18:16;;;;;;;;;;;;;;;;;;6305359;28;19917;-77
2024/02/18 10:21:16;;;;;;;;;;;;;;;;;;6308669;28;19912;-75
2024/02/18 10:24:19;;;;;;;;;;;;;;;;;;6319858;28;19919;-77
2024/02/18 10:27:19;;;;;;;;;;;;;;;;;;6322879;28;19916;-77
2024/02/18 10:30:19;;;;;;;;;;;;;;;;;;6315658;28;19958;-77
2024/02/18 10:33:20;;;;;;;;;;;;;;;;;;6301781;28;19955;-78
2024/02/18 10:36:20;;;;;;;;;;;;;;;;;;6306523;28;20396;-77
2024/02/18 10:39:20;;;;;;;;;;;;;;;;;;6318804;28;19913;-77
2024/02/18 10:42:20;;;;;;;;;;;;;;;;;;6302051;28;19912;-77
2024/02/18 10:45:21;;;;;;;;;;;;;;;;;;6322588;28;19924;-77
2024/02/18 10:48:21;;;;;;;;;;;;;;;;;;6324188;28;19908;-77
2024/02/18 10:51:21;;;;;;;;;;;;;;;;;;6326944;28;20364;-77
2024/02/18 10:54:21;;;;;;;;;;;;;;;;;;6320976;28;19943;-77
2024/02/18 10:57:22;;;;;;;;;;;;;;;;;;6325195;28;19962;-77
2024/02/18 11:00:22;;;;;;;;;;;;;;;;;;6323862;28;20330;-79
2024/02/18 11:03:22;;;;;;;;;;;;;;;;;;6321564;28;19961;-77
2024/02/18 11:06:22;;;;;;;;;;;;;;;;;;6324720;28;19919;-78
2024/02/18 11:09:22;;;;;;;;;;;;;;;;;;6304326;28;19931;-77
2024/02/18 11:12:22;;;;;;;;;;;;;;;;;;6320784;28;19927;-77
2024/02/18 11:15:22;;;;;;;;;;;;;;;;;;6321149;28;20459;-79
2024/02/18 11:18:23;;;;;;;;;;;;;;;;;;6307339;28;20313;-78
2024/02/18 11:21:24;;;;;;;;;;;;;;;;;;6302337;28;19915;-81
2024/02/18 11:24:24;;;;;;;;;;;;;;;;;;6308403;28;19912;-81
2024/02/18 11:27:24;;;;;;;;;;;;;;;;;;6307465;28;20052;-81
2024/02/18 11:30:24;;;;;;;;;;;;;;;;;;6324413;28;19911;-81
2024/02/18 11:33:24;;;;;;;;;;;;;;;;;;6316060;28;19913;-82
2024/02/18 11:36:26;;;;;;;;;;;;;;;;;;6309565;28;20312;-81
2024/02/18 11:39:27;;;;;;;;;;;;;;;;;;6308785;28;20007;-81
2024/02/18 11:42:27;;;;;;;;;;;;;;;;;;6313625;28;20280;-83
2024/02/18 11:45:29;;;;;;;;;;;;;;;;;;6305009;28;19920;-80
2024/02/18 11:48:29;;;;;;;;;;;;;;;;;;6324558;28;19903;-80
2024/02/18 11:51:29;;;;;;;;;;;;;;;;;;6308006;28;19931;-82
2024/02/18 11:54:29;;;;;;;;;;;;;;;;;;6316088;28;19908;-83
2024/02/18 11:57:29;;;;;;;;;;;;;;;;;;6324914;28;19905;-81
2024/02/18 12:00:29;;;;;;;;;;;;;;;;;;6323646;28;19911;-80
2024/02/18 12:03:29;;;;;;;;;;;;;;;;;;6320321;28;19969;-80
2024/02/18 12:06:31;;;;;;;;;;;;;;;;;;6302408;28;19934;-79
2024/02/18 12:09:31;;;;;;;;;;;;;;;;;;6306891;28;20387;-78
2024/02/18 12:12:31;;;;;;;;;;;;;;;;;;6324886;28;20433;-78
2024/02/18 12:15:31;;;;;;;;;;;;;;;;;;6348406;28;19910;-76
2024/02/18 12:18:31;;;;;;;;;;;;;;;;;;6319150;28;19908;-76
2024/02/18 12:21:32;;;;;;;;;;;;;;;;;;6315892;28;19974;-77
2024/02/18 12:24:32;;;;;;;;;;;;;;;;;;6320555;28;20250;-78
2024/02/18 12:27:32;;;;;;;;;;;;;;;;;;6322016;28;20268;-79
2024/02/18 12:30:32;;;;;;;;;;;;;;;;;;6310692;28;20281;-78
2024/02/18 12:33:32;;;;;;;;;;;;;;;;;;6299316;28;20281;-79
2024/02/18 12:36:32;;;;;;;;;;;;;;;;;;6306524;28;20242;-79
2024/02/18 12:39:32;;;;;;;;;;;;;;;;;;6310696;28;20314;-79
2024/02/18 12:42:32;;;;;;;;;;;;;;;;;;6311363;28;19908;-78
2024/02/18 12:45:33;;;;;;;;;;;;;;;;;;6297782;28;19963;-78
2024/02/18 12:48:33;;;;;;;;;;;;;;;;;;6311291;28;20018;-78
2024/02/18 12:51:34;;;;;;;;;;;;;;;;;;6338768;28;20280;-78
2024/02/18 12:54:34;;;;;;;;;;;;;;;;;;6348964;28;20093;-78
2024/02/18 12:57:34;;;;;;;;;;;;;;;;;;6311814;28;19958;-78
2024/02/18 13:00:35;;;;;;;;;;;;;;;;;;6317591;28;19969;-78
2024/02/18 13:03:35;;;;;;;;;;;;;;;;;;6322056;28;19922;-79
2024/02/18 13:06:35;;;;;;;;;;;;;;;;;;6307607;28;19919;-78
2024/02/18 13:09:37;;;;;;;;;;;;;;;;;;6299127;28;19913;-78
2024/02/18 13:12:37;;;;;;;;;;;;;;;;;;6313864;28;19916;-78
2024/02/18 13:15:37;;;;;;;;;;;;;;;;;;6342234;28;19912;-78
2024/02/18 13:18:41;;;;;;;;;;;;;;;;;;6322816;28;19919;-79
2024/02/18 13:21:41;;;;;;;;;;;;;;;;;;6345773;28;19990;-78
2024/02/18 13:24:41;;;;;;;;;;;;;;;;;;6325120;28;19912;-78
2024/02/18 13:27:41;;;;;;;;;;;;;;;;;;6297263;28;19912;-78
2024/02/18 13:30:42;;;;;;;;;;;;;;;;;;6313660;28;20315;-78
2024/02/18 13:33:42;;;;;;;;;;;;;;;;;;6324212;28;19904;-78
2024/02/18 13:36:42;;;;;;;;;;;;;;;;;;6323644;28;19961;-78
2024/02/18 13:39:42;;;;;;;;;;;;;;;;;;6324458;28;19908;-78
2024/02/18 13:42:42;;;;;;;;;;;;;;;;;;6312576;28;19911;-76
2024/02/18 13:45:42;;;;;;;;;;;;;;;;;;6301308;28;19920;-76
2024/02/18 13:48:43;;;;;;;;;;;;;;;;;;6324435;28;19908;-77
2024/02/18 13:51:43;;;;;;;;;;;;;;;;;;6323017;28;19908;-76
2024/02/18 13:54:43;;;;;;;;;;;;;;;;;;6323132;28;19943;-76
2024/02/18 13:57:43;;;;;;;;;;;;;;;;;;6320146;28;19998;-76
2024/02/18 14:00:43;;;;;;;;;;;;;;;;;;6321745;28;20289;-76
2024/02/18 14:03:44;;;;;;;;;;;;;;;;;;6322864;28;19916;-77
2024/02/18 14:06:44;;;;;;;;;;;;;;;;;;6325851;28;20300;-76
2024/02/18 14:09:44;;;;;;;;;;;;;;;;;;6324833;28;19908;-77
2024/02/18 14:12:45;;;;;;;;;;;;;;;;;;6329524;28;20060;-76
2024/02/18 14:15:45;;;;;;;;;;;;;;;;;;6343033;28;20072;-77
2024/02/18 14:18:45;;;;;;;;;;;;;;;;;;6306770;28;19915;-76
2024/02/18 14:21:45;;;;;;;;;;;;;;;;;;6326352;28;19915;-76
2024/02/18 14:24:45;;;;;;;;;;;;;;;;;;6312241;28;19927;-75
2024/02/18 14:27:45;;;;;;;;;;;;;;;;;;6325501;28;19915;-76
2024/02/18 14:30:45;;;;;;;;;;;;;;;;;;6316377;28;19918;-76
2024/02/18 14:33:46;;;;;;;;;;;;;;;;;;6300403;28;19909;-76
2024/02/18 14:36:46;;;;;;;;;;;;;;;;;;6301172;28;19909;-75
2024/02/18 14:39:46;;;;;;;;;;;;;;;;;;6300646;28;19996;-76
2024/02/18 14:42:46;;;;;;;;;;;;;;;;;;6320215;28;19908;-76
2024/02/18 14:45:46;;;;;;;;;;;;;;;;;;6324920;28;19920;-76
2024/02/18 14:48:46;;;;;;;;;;;;;;;;;;6324732;28;19904;-76
2024/02/18 14:51:47;;;;;;;;;;;;;;;;;;6324799;28;19908;-76
2024/02/18 14:54:47;;;;;;;;;;;;;;;;;;6325564;28;20343;-76
2024/02/18 14:57:47;;;;;;;;;;;;;;;;;;6323182;28;19915;-75
2024/02/18 15:00:47;;;;;;;;;;;;;;;;;;6319778;28;19947;-76
2024/02/18 15:03:47;;;;;;;;;;;;;;;;;;6299331;28;19912;-77
2024/02/18 15:06:48;;;;;;;;;;;;;;;;;;6318498;28;19913;-76
2024/02/18 15:09:49;;;;;;;;;;;;;;;;;;6325360;28;19915;-76
2024/02/18 15:12:49;;;;;;;;;;;;;;;;;;6326964;28;19916;-76
2024/02/18 15:15:49;;;;;;;;;;;;;;;;;;6324969;28;19943;-76
2024/02/18 15:18:49;;;;;;;;;;;;;;;;;;6347238;28;19926;-75
2024/02/18 15:21:50;;;;;;;;;;;;;;;;;;6350103;28;20317;-76
2024/02/18 15:24:50;;;;;;;;;;;;;;;;;;6349932;28;20376;-76
2024/02/18 15:27:50;;;;;;;;;;;;;;;;;;6317581;28;19904;-76
2024/02/18 15:30:50;;;;;;;;;;;;;;;;;;6312589;28;19911;-76
2024/02/18 15:33:50;;;;;;;;;;;;;;;;;;6321914;28;19953;-77
2024/02/18 15:36:50;;;;;;;;;;;;;;;;;;6323879;28;19914;-76
2024/02/18 15:39:51;;;;;;;;;;;;;;;;;;6324263;28;19995;-76
2024/02/18 15:42:53;;;;;;;;;;;;;;;;;;6323674;28;19950;-75
2024/02/18 15:45:53;;;;;;;;;;;;;;;;;;6307271;28;19956;-75
2024/02/18 15:48:53;;;;;;;;;;;;;;;;;;6309226;28;20425;-76
2024/02/18 15:51:53;;;;;;;;;;;;;;;;;;6318559;28;19967;-76
2024/02/18 15:54:54;;;;;;;;;;;;;;;;;;6300329;28;19950;-76
2024/02/18 15:57:55;;;;;;;;;;;;;;;;;;6308767;28;19904;-76
2024/02/18 16:00:55;;;;;;;;;;;;;;;;;;6323993;28;19945;-76
2024/02/18 16:03:55;;;;;;;;;;;;;;;;;;6323479;28;20319;-76
2024/02/18 16:06:56;;;;;;;;;;;;;;;;;;6323393;28;19914;-76
2024/02/18 16:09:56;;;;;;;;;;;;;;;;;;6299056;28;20008;-75
2024/02/18 16:12:56;;;;;;;;;;;;;;;;;;6334459;28;20054;-76
2024/02/18 16:15:56;;;;;;;;;;;;;;;;;;6328728;28;20331;-75
2024/02/18 16:18:56;;;;;;;;;;;;;;;;;;6304817;28;19997;-75
2024/02/18 16:21:57;;;;;;;;;;;;;;;;;;6298078;28;19904;-78
2024/02/18 16:24:57;;;;;;;;;;;;;;;;;;6307275;28;19916;-78
2024/02/18 16:27:57;;;;;;;;;;;;;;;;;;6311196;28;19924;-78
2024/02/18 16:30:57;;;;;;;;;;;;;;;;;;6296795;28;20280;-79
2024/02/18 16:33:57;;;;;;;;;;;;;;;;;;6300642;28;20365;-78
2024/02/18 16:36:57;;;;;;;;;;;;;;;;;;6316707;28;19908;-78
2024/02/18 16:39:57;;;;;;;;;;;;;;;;;;6318282;28;19908;-78
2024/02/18 16:42:58;;;;;;;;;;;;;;;;;;6302486;28;19912;-77
2024/02/18 16:45:58;;;;;;;;;;;;;;;;;;6297237;28;20281;-78
2024/02/18 16:48:58;;;;;;;;;;;;;;;;;;6312440;28;19965;-78
2024/02/18 16:51:59;;;;;;;;;;;;;;;;;;6311673;28;19934;-78
2024/02/18 16:54:59;;;;;;;;;;;;;;;;;;6317201;28;20352;-79
2024/02/18 16:57:59;;;;;;;;;;;;;;;;;;6306709;28;19912;-76
2024/02/18 17:00:59;;;;;;;;;;;;;;;;;;6312703;28;19915;-77
2024/02/18 17:04:01;;;;;;;;;;;;;;;;;;6297463;28;19919;-77
2024/02/18 17:07:01;;;;;;;;;;;;;;;;;;6296563;28;19912;-76
2024/02/18 17:10:01;;;;;;;;;;;;;;;;;;6304018;28;19908;-76
2024/02/18 17:13:01;;;;;;;;;;;;;;;;;;6311704;28;19916;-75
2024/02/18 17:16:01;;;;;;;;;;;;;;;;;;6298379;28;19917;-76
2024/02/18 17:19:02;;;;;;;;;;;;;;;;;;6307864;28;20374;-75
2024/02/18 17:22:02;;;;;;;;;;;;;;;;;;6299975;28;20444;-77
2024/02/18 17:25:02;;;;;;;;;;;;;;;;;;6321021;28;20345;-77
2024/02/18 17:28:02;;;;;;;;;;;;;;;;;;6302116;28;19982;-75
2024/02/18 17:31:03;;;;;;;;;;;;;;;;;;6306892;28;19950;-76
2024/02/18 17:34:03;;;;;;;;;;;;;;;;;;6320866;28;19915;-77
2024/02/18 17:37:03;;;;;;;;;;;;;;;;;;6320553;28;19918;-78
2024/02/18 17:40:03;;;;;;;;;;;;;;;;;;6326748;28;20368;-78
2024/02/18 17:43:03;;;;;;;;;;;;;;;;;;6324281;28;20318;-78
2024/02/18 17:46:04;;;;;;;;;;;;;;;;;;6313281;28;19957;-81
2024/02/18 17:49:04;;;;;;;;;;;;;;;;;;6317283;28;19916;-82
2024/02/18 17:52:04;;;;;;;;;;;;;;;;;;6322080;28;20435;-79
2024/02/18 17:55:04;;;;;;;;;;;;;;;;;;6325016;28;19908;-80
2024/02/18 17:58:05;;;;;;;;;;;;;;;;;;6310333;28;20366;-79
2024/02/18 18:01:05;;;;;;;;;;;;;;;;;;6325353;28;19919;-80
2024/02/18 18:04:05;;;;;;;;;;;;;;;;;;6303692;28;20330;-80
2024/02/18 18:07:05;;;;;;;;;;;;;;;;;;6307223;28;19912;-78
2024/02/18 18:10:05;;;;;;;;;;;;;;;;;;6311904;28;20290;-79
2024/02/18 18:13:06;;;;;;;;;;;;;;;;;;6331864;28;19920;-80
2024/02/18 18:16:09;;;;;;;;;;;;;;;;;;6327553;28;20002;-79
2024/02/18 18:19:10;;;;;;;;;;;;;;;;;;6301441;28;19908;-80
2024/02/18 18:22:10;;;;;;;;;;;;;;;;;;6326343;28;20356;-80
2024/02/18 18:25:11;;;;;;;;;;;;;;;;;;6326760;28;19919;-78
2024/02/18 18:28:11;;;;;;;;;;;;;;;;;;6322304;28;19917;-79
2024/02/18 18:31:12;;;;;;;;;;;;;;;;;;6306488;28;19909;-77
2024/02/18 18:34:12;;;;;;;;;;;;;;;;;;6303520;28;19909;-79
2024/02/18 18:37:13;;;;;;;;;;;;;;;;;;6310286;28;20277;-78
2024/02/18 18:40:13;;;;;;;;;;;;;;;;;;6316618;28;19952;-77
2024/02/18 18:43:13;;;;;;;;;;;;;;;;;;6319304;28;19910;-78
2024/02/18 18:46:13;;;;;;;;;;;;;;;;;;6304281;28;19908;-78
2024/02/18 18:49:18;;;;;;;;;;;;;;;;;;6333326;28;19923;-79
2024/02/18 18:52:18;;;;;;;;;;;;;;;;;;6315683;28;19912;-78
2024/02/18 18:55:18;;;;;;;;;;;;;;;;;;6322192;28;20326;-78
2024/02/18 18:58:18;;;;;;;;;;;;;;;;;;6316339;28;19908;-78
2024/02/18 19:01:19;;;;;;;;;;;;;;;;;;6300533;28;19912;-78
2024/02/18 19:04:21;;;;;;;;;;;;;;;;;;6304218;28;20044;-78
2024/02/18 19:07:25;;;;;;;;;;;;;;;;;;6324442;28;19912;-78
2024/02/18 19:10:25;;;;;;;;;;;;;;;;;;6317864;28;19908;-79
2024/02/18 19:13:25;;;;;;;;;;;;;;;;;;6319110;28;20288;-78
2024/02/18 19:16:25;;;;;;;;;;;;;;;;;;6323418;28;19912;-78
2024/02/18 19:19:25;;;;;;;;;;;;;;;;;;6314424;28;19908;-78
2024/02/18 19:22:25;;;;;;;;;;;;;;;;;;6299190;28;19934;-78
2024/02/18 19:25:26;;;;;;;;;;;;;;;;;;6318067;28;19993;-78
2024/02/18 19:28:26;;;;;;;;;;;;;;;;;;6305789;28;19909;-78
2024/02/18 19:31:26;;;;;;;;;;;;;;;;;;6320661;28;19919;-79
2024/02/18 19:34:26;;;;;;;;;;;;;;;;;;6319251;28;20318;-79
2024/02/18 19:37:28;;;;;;;;;;;;;;;;;;6308976;28;19959;-77
2024/02/18 19:40:31;;;;;;;;;;;;;;;;;;6309474;28;19919;-80
2024/02/18 19:43:31;;;;;;;;;;;;;;;;;;6298164;28;19924;-81
2024/02/18 19:46:32;;;;;;;;;;;;;;;;;;6316161;28;19919;-81
2024/02/18 19:49:32;;;;;;;;;;;;;;;;;;6322561;28;19908;-80
2024/02/18 19:52:32;;;;;;;;;;;;;;;;;;6324622;28;19947;-80
2024/02/18 19:55:32;;;;;;;;;;;;;;;;;;6324364;28;20318;-80
2024/02/18 19:58:32;;;;;;;;;;;;;;;;;;6320531;28;19953;-80
2024/02/18 20:01:33;;;;;;;;;;;;;;;;;;6314023;28;19960;-80
2024/02/18 20:04:33;;;;;;;;;;;;;;;;;;6306490;28;19916;-80
2024/02/18 20:07:33;;;;;;;;;;;;;;;;;;6319619;28;20250;-80
2024/02/18 20:10:33;;;;;;;;;;;;;;;;;;6322159;28;19916;-80
2024/02/18 20:13:33;;;;;;;;;;;;;;;;;;6322584;28;19916;-80
2024/02/18 20:16:34;;;;;;;;;;;;;;;;;;6299284;28;19908;-80
2024/02/18 20:19:34;;;;;;;;;;;;;;;;;;6304954;28;20000;-80
2024/02/18 20:22:34;;;;;;;;;;;;;;;;;;6312836;28;19915;-80
2024/02/18 20:25:34;;;;;;;;;;;;;;;;;;6302282;28;19916;-80
2024/02/18 20:28:34;;;;;;;;;;;;;;;;;;6305218;28;19908;-80
2024/02/18 20:31:34;;;;;;;;;;;;;;;;;;6301250;28;19961;-80